sensor_id;sensor_type;location;lat;lon;timestamp;pressure;altitude;pressure_sealevel;temperature;humidity
78667;BME280;67983;59.830;30.198;2023-03-16T00:00:53;100805.75;;;2.63;54.96
78667;BME280;67983;59.830;30.198;2023-03-16T00:03:20;100808.50;;;2.58;54.94
78667;BME280;67983;59.830;30.198;2023-03-16T00:05:48;100815.63;;;2.55;55.55
78667;BME280;67983;59.830;30.198;2023-03-16T00:08:21;100816.66;;;2.49;55.66
78667;BME280;67983;59.830;30.198;2023-03-16T00:10:48;100825.53;;;2.45;56.05
78667;BME280;67983;59.830;30.198;2023-03-16T00:13:20;100824.75;;;2.42;55.79
78667;BME280;67983;59.830;30.198;2023-03-16T00:15:49;100826.72;;;2.35;56.10
78667;BME280;67983;59.830;30.198;2023-03-16T00:18:17;100831.94;;;2.35;56.44
78667;BME280;67983;59.830;30.198;2023-03-16T00:20:44;100839.03;;;2.31;56.57
78667;BME280;67983;59.830;30.198;2023-03-16T00:23:12;100839.94;;;2.30;56.57
78667;BME280;67983;59.830;30.198;2023-03-16T00:25:40;100841.72;;;2.28;56.45
78667;BME280;67983;59.830;30.198;2023-03-16T00:28:15;100850.53;;;2.26;56.47
78667;BME280;67983;59.830;30.198;2023-03-16T00:30:43;100857.50;;;2.27;56.66
78667;BME280;67983;59.830;30.198;2023-03-16T00:33:14;100865.28;;;2.28;56.86
78667;BME280;67983;59.830;30.198;2023-03-16T00:35:41;100852.31;;;2.25;57.11
78667;BME280;67983;59.830;30.198;2023-03-16T00:38:14;100856.63;;;2.26;57.08
78667;BME280;67983;59.830;30.198;2023-03-16T00:40:44;100861.97;;;2.23;56.93
78667;BME280;67983;59.830;30.198;2023-03-16T00:43:13;100858.53;;;2.21;57.40
78667;BME280;67983;59.830;30.198;2023-03-16T00:45:44;100858.50;;;2.23;57.35
78667;BME280;67983;59.830;30.198;2023-03-16T00:48:13;100864.63;;;2.22;57.66
78667;BME280;67983;59.830;30.198;2023-03-16T00:50:40;100866.34;;;2.23;57.52
78667;BME280;67983;59.830;30.198;2023-03-16T00:53:08;100861.16;;;2.21;57.82
78667;BME280;67983;59.830;30.198;2023-03-16T00:55:36;100879.44;;;2.23;57.46
78667;BME280;67983;59.830;30.198;2023-03-16T00:58:05;100876.06;;;2.19;57.85
78667;BME280;67983;59.830;30.198;2023-03-16T01:00:32;100884.75;;;2.20;58.00
78667;BME280;67983;59.830;30.198;2023-03-16T01:03:01;100883.94;;;2.18;57.61
78667;BME280;67983;59.830;30.198;2023-03-16T01:05:31;100884.06;;;2.13;57.99
78667;BME280;67983;59.830;30.198;2023-03-16T01:07:59;100887.59;;;2.12;58.07
78667;BME280;67983;59.830;30.198;2023-03-16T01:10:27;100895.44;;;2.12;58.00
78667;BME280;67983;59.830;30.198;2023-03-16T01:12:56;100888.50;;;2.11;58.33
78667;BME280;67983;59.830;30.198;2023-03-16T01:15:25;100888.53;;;2.09;58.41
78667;BME280;67983;59.830;30.198;2023-03-16T01:17:53;100891.19;;;2.08;58.17
78667;BME280;67983;59.830;30.198;2023-03-16T01:20:46;100897.34;;;2.07;58.19
78667;BME280;67983;59.830;30.198;2023-03-16T01:23:16;100894.00;;;2.02;58.37
78667;BME280;67983;59.830;30.198;2023-03-16T01:25:44;100893.19;;;1.98;58.62
78667;BME280;67983;59.830;30.198;2023-03-16T01:28:18;100901.91;;;2.00;58.75
78667;BME280;67983;59.830;30.198;2023-03-16T01:30:47;100896.81;;;1.94;58.73
78667;BME280;67983;59.830;30.198;2023-03-16T01:33:16;100909.81;;;1.97;58.92
78667;BME280;67983;59.830;30.198;2023-03-16T01:35:51;100908.09;;;1.96;59.22
78667;BME280;67983;59.830;30.198;2023-03-16T01:38:19;100917.69;;;1.96;58.92
78667;BME280;67983;59.830;30.198;2023-03-16T01:40:46;100912.56;;;1.93;58.86
78667;BME280;67983;59.830;30.198;2023-03-16T01:43:17;100923.94;;;1.92;59.01
78667;BME280;67983;59.830;30.198;2023-03-16T01:46:16;100924.06;;;1.87;59.13
78667;BME280;67983;59.830;30.198;2023-03-16T01:49:01;100922.41;;;1.83;59.08
78667;BME280;67983;59.830;30.198;2023-03-16T01:51:38;100925.09;;;1.80;59.54
78667;BME280;67983;59.830;30.198;2023-03-16T01:54:13;100925.28;;;1.74;59.49
78667;BME280;67983;59.830;30.198;2023-03-16T01:56:45;100932.31;;;1.72;59.86
78667;BME280;67983;59.830;30.198;2023-03-16T01:59:18;100935.84;;;1.71;59.57
78667;BME280;67983;59.830;30.198;2023-03-16T02:01:49;100941.16;;;1.66;60.08
78667;BME280;67983;59.830;30.198;2023-03-16T02:04:28;100927.63;;;1.50;59.85
78667;BME280;67983;59.830;30.198;2023-03-16T02:07:00;100949.22;;;1.59;59.94
78667;BME280;67983;59.830;30.198;2023-03-16T02:09:30;100957.06;;;1.59;60.20
78667;BME280;67983;59.830;30.198;2023-03-16T02:11:58;100961.44;;;1.58;60.61
78667;BME280;67983;59.830;30.198;2023-03-16T02:14:28;100958.00;;;1.56;60.23
78667;BME280;67983;59.830;30.198;2023-03-16T02:16:58;100952.94;;;1.48;60.49
78667;BME280;67983;59.830;30.198;2023-03-16T02:19:38;100961.66;;;1.49;60.59
78667;BME280;67983;59.830;30.198;2023-03-16T02:22:10;100964.31;;;1.47;60.63
78667;BME280;67983;59.830;30.198;2023-03-16T02:24:41;100962.69;;;1.43;60.78
78667;BME280;67983;59.830;30.198;2023-03-16T02:27:10;100967.03;;;1.43;60.79
78667;BME280;67983;59.830;30.198;2023-03-16T02:30:07;100968.88;;;1.39;60.87
78667;BME280;67983;59.830;30.198;2023-03-16T02:32:48;100964.56;;;1.38;61.18
78667;BME280;67983;59.830;30.198;2023-03-16T02:35:21;100980.25;;;1.38;61.03
78667;BME280;67983;59.830;30.198;2023-03-16T02:37:49;100979.38;;;1.36;61.34
78667;BME280;67983;59.830;30.198;2023-03-16T02:40:22;100977.75;;;1.32;61.35
78667;BME280;67983;59.830;30.198;2023-03-16T02:42:59;100984.66;;;1.35;61.39
78667;BME280;67983;59.830;30.198;2023-03-16T02:45:39;100993.44;;;1.32;61.48
78667;BME280;67983;59.830;30.198;2023-03-16T02:48:13;100997.84;;;1.30;61.57
78667;BME280;67983;59.830;30.198;2023-03-16T02:50:44;101004.00;;;1.28;61.55
78667;BME280;67983;59.830;30.198;2023-03-16T02:53:13;101000.56;;;1.26;61.56
78667;BME280;67983;59.830;30.198;2023-03-16T02:55:41;101007.56;;;1.25;61.80
78667;BME280;67983;59.830;30.198;2023-03-16T02:58:08;101008.41;;;1.26;61.66
78667;BME280;67983;59.830;30.198;2023-03-16T03:00:38;101008.50;;;1.23;61.59
78667;BME280;67983;59.830;30.198;2023-03-16T03:03:10;101001.59;;;1.18;61.72
78667;BME280;67983;59.830;30.198;2023-03-16T03:05:43;101006.78;;;1.20;61.93
78667;BME280;67983;59.830;30.198;2023-03-16T03:08:10;101003.38;;;1.16;62.03
78667;BME280;67983;59.830;30.198;2023-03-16T03:10:39;101008.63;;;1.16;61.97
78667;BME280;67983;59.830;30.198;2023-03-16T03:13:07;101011.28;;;1.15;62.28
78667;BME280;67983;59.830;30.198;2023-03-16T03:15:35;101011.34;;;1.12;62.34
78667;BME280;67983;59.830;30.198;2023-03-16T03:18:09;101014.78;;;1.14;62.23
78667;BME280;67983;59.830;30.198;2023-03-16T03:20:51;101019.16;;;1.13;62.01
78667;BME280;67983;59.830;30.198;2023-03-16T03:23:19;101020.13;;;1.09;62.26
78667;BME280;67983;59.830;30.198;2023-03-16T03:25:46;101024.44;;;1.10;62.41
78667;BME280;67983;59.830;30.198;2023-03-16T03:28:15;101028.63;;;1.17;62.55
78667;BME280;67983;59.830;30.198;2023-03-16T03:30:42;101028.56;;;1.20;62.24
78667;BME280;67983;59.830;30.198;2023-03-16T03:33:11;101038.88;;;1.27;62.41
78667;BME280;67983;59.830;30.198;2023-03-16T03:35:39;101035.34;;;1.29;62.22
78667;BME280;67983;59.830;30.198;2023-03-16T03:38:09;101037.91;;;1.31;61.74
78667;BME280;67983;59.830;30.198;2023-03-16T03:41:06;101038.78;;;1.31;62.10
78667;BME280;67983;59.830;30.198;2023-03-16T03:43:36;101042.28;;;1.30;62.22
78667;BME280;67983;59.830;30.198;2023-03-16T03:46:04;101041.53;;;1.25;62.18
78667;BME280;67983;59.830;30.198;2023-03-16T03:48:34;101042.59;;;1.16;62.35
78667;BME280;67983;59.830;30.198;2023-03-16T03:51:05;101052.19;;;1.16;62.07
78667;BME280;67983;59.830;30.198;2023-03-16T03:53:32;101053.13;;;1.13;62.22
78667;BME280;67983;59.830;30.198;2023-03-16T03:56:25;101055.78;;;1.12;62.00
78667;BME280;67983;59.830;30.198;2023-03-16T03:58:53;101051.47;;;1.09;62.55
78667;BME280;67983;59.830;30.198;2023-03-16T04:01:41;101067.09;;;1.12;62.69
78667;BME280;67983;59.830;30.198;2023-03-16T04:04:10;101073.09;;;1.16;62.52
78667;BME280;67983;59.830;30.198;2023-03-16T04:06:39;101070.34;;;1.22;62.52
78667;BME280;67983;59.830;30.198;2023-03-16T04:09:36;101076.31;;;1.29;62.35
78667;BME280;67983;59.830;30.198;2023-03-16T04:12:52;101078.69;;;1.38;62.10
78667;BME280;67983;59.830;30.198;2023-03-16T04:15:33;101073.34;;;1.44;62.09
78667;BME280;67983;59.830;30.198;2023-03-16T04:22:19;101085.34;;;1.53;61.54
78667;BME280;67983;59.830;30.198;2023-03-16T04:24:49;101086.22;;;1.52;61.72
78667;BME280;67983;59.830;30.198;2023-03-16T04:27:20;101088.09;;;1.46;61.54
78667;BME280;67983;59.830;30.198;2023-03-16T04:29:47;101099.53;;;1.42;61.98
78667;BME280;67983;59.830;30.198;2023-03-16T04:32:14;101095.28;;;1.37;61.69
78667;BME280;67983;59.830;30.198;2023-03-16T04:34:45;101090.28;;;1.28;61.97
78667;BME280;67983;59.830;30.198;2023-03-16T04:37:15;101098.03;;;1.31;61.90
78667;BME280;67983;59.830;30.198;2023-03-16T04:39:44;101108.59;;;1.26;61.96
78667;BME280;67983;59.830;30.198;2023-03-16T04:42:20;101094.78;;;1.19;62.44
78667;BME280;67983;59.830;30.198;2023-03-16T04:44:59;101110.44;;;1.21;62.52
78667;BME280;67983;59.830;30.198;2023-03-16T04:51:27;101109.72;;;1.14;63.18
78667;BME280;67983;59.830;30.198;2023-03-16T04:54:07;101121.81;;;1.18;63.59
78667;BME280;67983;59.830;30.198;2023-03-16T04:56:42;101124.44;;;1.18;63.29
78667;BME280;67983;59.830;30.198;2023-03-16T04:59:47;101132.19;;;1.22;63.38
78667;BME280;67983;59.830;30.198;2023-03-16T05:02:22;101127.75;;;1.27;63.54
78667;BME280;67983;59.830;30.198;2023-03-16T05:04:50;101138.00;;;1.36;63.84
78667;BME280;67983;59.830;30.198;2023-03-16T05:07:17;101132.78;;;1.36;63.42
78667;BME280;67983;59.830;30.198;2023-03-16T05:09:51;101134.31;;;1.46;63.63
78667;BME280;67983;59.830;30.198;2023-03-16T05:12:22;101137.47;;;1.60;63.62
78667;BME280;67983;59.830;30.198;2023-03-16T05:14:53;101150.09;;;1.80;63.68
78667;BME280;67983;59.830;30.198;2023-03-16T05:17:33;101162.84;;;1.94;63.37
78667;BME280;67983;59.830;30.198;2023-03-16T05:20:00;101156.66;;;1.99;63.06
78667;BME280;67983;59.830;30.198;2023-03-16T05:22:35;101173.94;;;2.05;62.71
78667;BME280;67983;59.830;30.198;2023-03-16T05:25:14;101174.75;;;2.07;62.88
78667;BME280;67983;59.830;30.198;2023-03-16T05:27:48;101173.66;;;2.17;62.71
78667;BME280;67983;59.830;30.198;2023-03-16T05:30:32;101180.44;;;2.24;62.39
78667;BME280;67983;59.830;30.198;2023-03-16T05:33:03;101185.53;;;2.32;62.49
78667;BME280;67983;59.830;30.198;2023-03-16T05:35:31;101193.16;;;2.39;62.20
78667;BME280;67983;59.830;30.198;2023-03-16T05:38:03;101195.63;;;2.47;61.84
78667;BME280;67983;59.830;30.198;2023-03-16T05:40:36;101197.25;;;2.51;62.16
78667;BME280;67983;59.830;30.198;2023-03-16T05:43:14;101198.84;;;2.57;62.09
78667;BME280;67983;59.830;30.198;2023-03-16T05:45:48;101194.50;;;2.56;61.59
78667;BME280;67983;59.830;30.198;2023-03-16T05:48:21;101209.38;;;2.55;61.60
78667;BME280;67983;59.830;30.198;2023-03-16T05:50:53;101211.22;;;2.52;62.02
78667;BME280;67983;59.830;30.198;2023-03-16T05:53:26;101190.56;;;2.39;61.66
78667;BME280;67983;59.830;30.198;2023-03-16T05:55:54;101224.25;;;2.53;61.56
78667;BME280;67983;59.830;30.198;2023-03-16T05:58:26;101220.94;;;2.47;61.82
78667;BME280;67983;59.830;30.198;2023-03-16T06:00:54;101233.63;;;2.63;61.52
78667;BME280;67983;59.830;30.198;2023-03-16T06:03:27;101235.16;;;2.70;61.53
78667;BME280;67983;59.830;30.198;2023-03-16T06:05:57;101231.59;;;2.73;61.42
78667;BME280;67983;59.830;30.198;2023-03-16T06:08:31;101235.69;;;2.85;61.37
78667;BME280;67983;59.830;30.198;2023-03-16T06:11:07;101245.97;;;2.92;61.20
78667;BME280;67983;59.830;30.198;2023-03-16T06:13:36;101245.03;;;2.95;60.88
78667;BME280;67983;59.830;30.198;2023-03-16T06:16:04;101251.75;;;3.05;60.94
78667;BME280;67983;59.830;30.198;2023-03-16T06:18:36;101255.16;;;3.09;60.68
78667;BME280;67983;59.830;30.198;2023-03-16T06:21:34;101253.13;;;3.18;60.32
78667;BME280;67983;59.830;30.198;2023-03-16T06:24:07;101255.56;;;3.26;60.55
78667;BME280;67983;59.830;30.198;2023-03-16T06:26:36;101249.16;;;3.36;60.33
78667;BME280;67983;59.830;30.198;2023-03-16T06:29:08;101257.63;;;3.46;59.61
78667;BME280;67983;59.830;30.198;2023-03-16T06:31:36;101249.13;;;3.38;59.73
78667;BME280;67983;59.830;30.198;2023-03-16T06:34:05;101261.94;;;3.48;59.19
78667;BME280;67983;59.830;30.198;2023-03-16T06:36:33;101270.31;;;3.61;59.61
78667;BME280;67983;59.830;30.198;2023-03-16T06:39:04;101270.19;;;3.66;59.22
78667;BME280;67983;59.830;30.198;2023-03-16T06:41:36;101274.41;;;3.71;58.75
78667;BME280;67983;59.830;30.198;2023-03-16T06:44:03;101280.38;;;3.76;58.94
78667;BME280;67983;59.830;30.198;2023-03-16T06:46:34;101275.84;;;3.81;58.56
78667;BME280;67983;59.830;30.198;2023-03-16T06:49:03;101286.19;;;3.87;58.25
78667;BME280;67983;59.830;30.198;2023-03-16T06:51:33;101291.44;;;3.87;58.72
78667;BME280;67983;59.830;30.198;2023-03-16T06:54:03;101271.63;;;3.76;58.22
78667;BME280;67983;59.830;30.198;2023-03-16T06:56:32;101300.22;;;3.86;58.60
78667;BME280;67983;59.830;30.198;2023-03-16T06:58:59;101302.75;;;3.89;58.77
78667;BME280;67983;59.830;30.198;2023-03-16T07:01:29;101306.19;;;3.92;58.13
78667;BME280;67983;59.830;30.198;2023-03-16T07:04:02;101302.94;;;3.82;58.47
78667;BME280;67983;59.830;30.198;2023-03-16T07:06:33;101309.03;;;3.84;58.38
78667;BME280;67983;59.830;30.198;2023-03-16T07:09:00;101310.63;;;3.89;57.96
78667;BME280;67983;59.830;30.198;2023-03-16T07:11:34;101311.47;;;3.90;58.42
78667;BME280;67983;59.830;30.198;2023-03-16T07:14:01;101309.47;;;3.98;57.91
78667;BME280;67983;59.830;30.198;2023-03-16T07:17:00;101316.47;;;3.99;57.71
78667;BME280;67983;59.830;30.198;2023-03-16T07:19:31;101317.34;;;4.00;57.75
78667;BME280;67983;59.830;30.198;2023-03-16T07:22:01;101324.16;;;4.05;57.14
78667;BME280;67983;59.830;30.198;2023-03-16T07:24:31;101318.81;;;4.08;57.34
78667;BME280;67983;59.830;30.198;2023-03-16T07:26:59;101321.34;;;4.11;57.13
78667;BME280;67983;59.830;30.198;2023-03-16T07:29:30;101323.00;;;4.15;57.32
78667;BME280;67983;59.830;30.198;2023-03-16T07:31:57;101331.53;;;4.22;57.21
78667;BME280;67983;59.830;30.198;2023-03-16T07:34:35;101337.44;;;4.30;57.49
78667;BME280;67983;59.830;30.198;2023-03-16T07:37:02;101339.09;;;4.33;56.95
78667;BME280;67983;59.830;30.198;2023-03-16T07:39:31;101335.50;;;4.35;56.36
78667;BME280;67983;59.830;30.198;2023-03-16T07:42:07;101341.38;;;4.45;56.71
78667;BME280;67983;59.830;30.198;2023-03-16T07:44:48;101347.16;;;4.55;55.99
78667;BME280;67983;59.830;30.198;2023-03-16T07:47:15;101347.88;;;4.61;56.43
78667;BME280;67983;59.830;30.198;2023-03-16T07:49:44;101351.19;;;4.66;56.29
78667;BME280;67983;59.830;30.198;2023-03-16T07:52:16;101355.25;;;4.76;55.48
78667;BME280;67983;59.830;30.198;2023-03-16T07:54:46;101355.91;;;4.83;56.08
78667;BME280;67983;59.830;30.198;2023-03-16T07:57:15;101349.59;;;4.89;55.90
78667;BME280;67983;59.830;30.198;2023-03-16T07:59:43;101355.47;;;4.97;56.06
78667;BME280;67983;59.830;30.198;2023-03-16T08:02:14;101356.16;;;5.02;55.33
78667;BME280;67983;59.830;30.198;2023-03-16T08:04:43;101338.78;;;4.98;55.62
78667;BME280;67983;59.830;30.198;2023-03-16T08:07:14;101349.06;;;5.05;55.06
78667;BME280;67983;59.830;30.198;2023-03-16T08:09:54;101367.09;;;5.16;55.20
78667;BME280;67983;59.830;30.198;2023-03-16T08:12:30;101367.25;;;5.12;55.02
78667;BME280;67983;59.830;30.198;2023-03-16T08:14:59;101367.00;;;5.19;55.14
78667;BME280;67983;59.830;30.198;2023-03-16T08:17:30;101364.13;;;5.27;55.21
78667;BME280;67983;59.830;30.198;2023-03-16T08:20:04;101375.09;;;5.39;54.92
78667;BME280;67983;59.830;30.198;2023-03-16T08:22:37;101375.84;;;5.43;53.91
78667;BME280;67983;59.830;30.198;2023-03-16T08:25:05;101372.53;;;5.38;54.28
78667;BME280;67983;59.830;30.198;2023-03-16T08:27:56;101383.63;;;5.46;54.50
78667;BME280;67983;59.830;30.198;2023-03-16T08:30:33;101393.78;;;5.57;54.18
78667;BME280;67983;59.830;30.198;2023-03-16T08:33:23;101393.50;;;5.64;54.15
78667;BME280;67983;59.830;30.198;2023-03-16T08:35:54;101395.78;;;5.75;53.80
78667;BME280;67983;59.830;30.198;2023-03-16T08:38:21;101397.06;;;5.88;53.94
78667;BME280;67983;59.830;30.198;2023-03-16T08:41:25;101409.22;;;6.17;54.12
78667;BME280;67983;59.830;30.198;2023-03-16T08:44:24;101421.31;;;6.46;52.89
78667;BME280;67983;59.830;30.198;2023-03-16T08:50:51;101412.03;;;6.81;51.79
78667;BME280;67983;59.830;30.198;2023-03-16T08:53:23;101426.09;;;7.04;51.33
78667;BME280;67983;59.830;30.198;2023-03-16T08:55:51;101430.16;;;7.12;51.38
78667;BME280;67983;59.830;30.198;2023-03-16T09:01:57;101425.78;;;7.11;50.45
78667;BME280;67983;59.830;30.198;2023-03-16T09:04:26;101427.94;;;7.24;50.57
78667;BME280;67983;59.830;30.198;2023-03-16T09:06:54;101433.19;;;7.45;50.08
78667;BME280;67983;59.830;30.198;2023-03-16T09:09:23;101436.03;;;7.41;49.78
78667;BME280;67983;59.830;30.198;2023-03-16T09:11:50;101435.91;;;7.44;49.72
78667;BME280;67983;59.830;30.198;2023-03-16T09:20:56;101446.94;;;7.54;47.05
78667;BME280;67983;59.830;30.198;2023-03-16T09:23:24;101445.53;;;7.45;47.48
78667;BME280;67983;59.830;30.198;2023-03-16T09:25:56;101466.06;;;7.38;46.97
78667;BME280;67983;59.830;30.198;2023-03-16T09:28:32;101458.13;;;7.16;47.40
78667;BME280;67983;59.830;30.198;2023-03-16T09:31:01;101456.41;;;6.94;48.18
78667;BME280;67983;59.830;30.198;2023-03-16T09:33:29;101474.88;;;6.94;48.40
78667;BME280;67983;59.830;30.198;2023-03-16T09:35:57;101479.66;;;6.84;47.88
78667;BME280;67983;59.830;30.198;2023-03-16T09:38:24;101484.38;;;6.76;48.21
78667;BME280;67983;59.830;30.198;2023-03-16T09:41:00;101477.41;;;6.73;48.35
78667;BME280;67983;59.830;30.198;2023-03-16T09:48:07;101482.31;;;7.06;48.21
78667;BME280;67983;59.830;30.198;2023-03-16T09:50:39;101465.91;;;6.98;47.65
78667;BME280;67983;59.830;30.198;2023-03-16T09:53:17;101470.91;;;7.05;48.13
78667;BME280;67983;59.830;30.198;2023-03-16T09:55:50;101480.06;;;7.40;49.14
78667;BME280;67983;59.830;30.198;2023-03-16T09:58:21;101474.38;;;7.49;48.62
78667;BME280;67983;59.830;30.198;2023-03-16T10:00:58;101483.78;;;7.57;48.53
78667;BME280;67983;59.830;30.198;2023-03-16T10:04:08;101491.13;;;7.70;48.39
78667;BME280;67983;59.830;30.198;2023-03-16T10:06:44;101501.72;;;7.91;48.45
78667;BME280;67983;59.830;30.198;2023-03-16T10:09:23;101487.09;;;8.23;48.66
78667;BME280;67983;59.830;30.198;2023-03-16T10:11:56;101492.81;;;8.34;46.18
78667;BME280;67983;59.830;30.198;2023-03-16T10:14:30;101487.38;;;8.37;46.02
78667;BME280;67983;59.830;30.198;2023-03-16T10:17:00;101494.91;;;8.26;46.62
78667;BME280;67983;59.830;30.198;2023-03-16T10:20:00;101502.06;;;8.03;46.16
78667;BME280;67983;59.830;30.198;2023-03-16T10:22:31;101505.84;;;7.76;45.78
78667;BME280;67983;59.830;30.198;2023-03-16T10:25:07;101515.22;;;7.63;46.17
78667;BME280;67983;59.830;30.198;2023-03-16T10:27:39;101520.75;;;7.99;45.36
78667;BME280;67983;59.830;30.198;2023-03-16T10:30:19;101526.91;;;7.99;45.26
78667;BME280;67983;59.830;30.198;2023-03-16T10:32:49;101520.28;;;7.89;46.12
78667;BME280;67983;59.830;30.198;2023-03-16T10:35:36;101525.63;;;7.88;46.45
78667;BME280;67983;59.830;30.198;2023-03-16T10:38:07;101528.38;;;8.47;46.05
78667;BME280;67983;59.830;30.198;2023-03-16T10:40:36;101530.88;;;8.89;45.73
78667;BME280;67983;59.830;30.198;2023-03-16T10:43:05;101537.44;;;8.99;46.22
78667;BME280;67983;59.830;30.198;2023-03-16T10:45:35;101542.91;;;8.96;45.72
78667;BME280;67983;59.830;30.198;2023-03-16T10:48:05;101539.88;;;8.85;44.63
78667;BME280;67983;59.830;30.198;2023-03-16T10:50:57;101540.00;;;8.63;44.71
78667;BME280;67983;59.830;30.198;2023-03-16T10:53:28;101546.69;;;8.52;45.33
78667;BME280;67983;59.830;30.198;2023-03-16T10:55:58;101562.03;;;8.44;44.59
78667;BME280;67983;59.830;30.198;2023-03-16T10:58:29;101552.97;;;8.29;44.43
78667;BME280;67983;59.830;30.198;2023-03-16T11:00:59;101551.84;;;8.34;45.13
78667;BME280;67983;59.830;30.198;2023-03-16T11:03:27;101553.28;;;8.62;45.18
78667;BME280;67983;59.830;30.198;2023-03-16T11:05:57;101559.47;;;9.00;45.03
78667;BME280;67983;59.830;30.198;2023-03-16T11:08:26;101558.22;;;9.09;44.38
78667;BME280;67983;59.830;30.198;2023-03-16T11:10:58;101553.97;;;9.42;43.04
78667;BME280;67983;59.830;30.198;2023-03-16T11:13:56;101564.13;;;9.87;42.60
78667;BME280;67983;59.830;30.198;2023-03-16T11:16:30;101565.50;;;9.41;42.07
78667;BME280;67983;59.830;30.198;2023-03-16T11:19:03;101580.25;;;8.90;42.93
78667;BME280;67983;59.830;30.198;2023-03-16T11:21:40;101575.50;;;8.37;44.21
78667;BME280;67983;59.830;30.198;2023-03-16T11:24:14;101586.22;;;7.92;44.34
78667;BME280;67983;59.830;30.198;2023-03-16T11:26:47;101588.31;;;7.62;45.06
78667;BME280;67983;59.830;30.198;2023-03-16T11:29:23;101591.69;;;7.44;45.44
78667;BME280;67983;59.830;30.198;2023-03-16T11:31:59;101598.63;;;7.90;44.85
78667;BME280;67983;59.830;30.198;2023-03-16T11:34:28;101587.75;;;7.76;44.98
78667;BME280;67983;59.830;30.198;2023-03-16T11:37:07;101602.03;;;7.27;45.59
78667;BME280;67983;59.830;30.198;2023-03-16T11:39:46;101607.09;;;7.09;46.45
78667;BME280;67983;59.830;30.198;2023-03-16T11:42:26;101610.41;;;8.03;45.21
78667;BME280;67983;59.830;30.198;2023-03-16T11:45:02;101608.00;;;9.01;43.38
78667;BME280;67983;59.830;30.198;2023-03-16T11:48:14;101618.19;;;10.02;40.54
78667;BME280;67983;59.830;30.198;2023-03-16T11:50:59;101619.06;;;10.89;38.66
78667;BME280;67983;59.830;30.198;2023-03-16T11:53:37;101613.69;;;12.03;37.20
78667;BME280;67983;59.830;30.198;2023-03-16T11:56:15;101608.28;;;13.50;35.10
78667;BME280;67983;59.830;30.198;2023-03-16T11:58:55;101605.34;;;14.60;32.97
78667;BME280;67983;59.830;30.198;2023-03-16T12:01:35;101616.59;;;15.53;32.26
78667;BME280;67983;59.830;30.198;2023-03-16T12:04:35;101616.00;;;16.10;29.52
78667;BME280;67983;59.830;30.198;2023-03-16T12:07:28;101631.53;;;16.64;29.16
78667;BME280;67983;59.830;30.198;2023-03-16T12:10:10;101631.00;;;16.94;28.18
78667;BME280;67983;59.830;30.198;2023-03-16T12:12:59;101638.09;;;17.17;26.69
78667;BME280;67983;59.830;30.198;2023-03-16T12:15:55;101637.59;;;17.23;26.70
78667;BME280;67983;59.830;30.198;2023-03-16T12:18:35;101638.34;;;17.48;26.82
78667;BME280;67983;59.830;30.198;2023-03-16T12:21:12;101649.63;;;17.96;26.30
78667;BME280;67983;59.830;30.198;2023-03-16T12:23:47;101642.28;;;18.09;26.25
78667;BME280;67983;59.830;30.198;2023-03-16T12:26:34;101643.47;;;18.37;24.78
78667;BME280;67983;59.830;30.198;2023-03-16T12:29:08;101647.41;;;18.65;24.77
78667;BME280;67983;59.830;30.198;2023-03-16T12:31:50;101651.19;;;18.84;24.46
78667;BME280;67983;59.830;30.198;2023-03-16T12:34:49;101661.66;;;18.45;22.66
78667;BME280;67983;59.830;30.198;2023-03-16T12:37:31;101660.28;;;17.75;22.18
78667;BME280;67983;59.830;30.198;2023-03-16T12:40:20;101671.59;;;16.65;23.76
78667;BME280;67983;59.830;30.198;2023-03-16T12:43:04;101666.69;;;15.51;23.07
78667;BME280;67983;59.830;30.198;2023-03-16T12:45:44;101677.94;;;14.40;25.32
78667;BME280;67983;59.830;30.198;2023-03-16T12:48:26;101670.03;;;13.70;26.37
78667;BME280;67983;59.830;30.198;2023-03-16T12:50:57;101666.34;;;13.59;25.68
78667;BME280;67983;59.830;30.198;2023-03-16T12:53:37;101668.81;;;13.48;26.52
78667;BME280;67983;59.830;30.198;2023-03-16T12:56:06;101680.06;;;13.67;26.53
78667;BME280;67983;59.830;30.198;2023-03-16T12:58:48;101674.31;;;13.73;27.15
78667;BME280;67983;59.830;30.198;2023-03-16T13:01:17;101680.44;;;13.46;26.71
78667;BME280;67983;59.830;30.198;2023-03-16T13:03:48;101684.00;;;12.89;27.62
78667;BME280;67983;59.830;30.198;2023-03-16T13:06:35;101680.66;;;12.41;28.75
78667;BME280;67983;59.830;30.198;2023-03-16T13:09:05;101685.47;;;12.18;29.55
78667;BME280;67983;59.830;30.198;2023-03-16T13:11:43;101678.94;;;12.24;29.68
78667;BME280;67983;59.830;30.198;2023-03-16T13:14:33;101682.59;;;12.37;29.58
78667;BME280;67983;59.830;30.198;2023-03-16T13:17:04;101682.28;;;12.43;29.92
78667;BME280;67983;59.830;30.198;2023-03-16T13:19:33;101689.31;;;12.44;30.01
78667;BME280;67983;59.830;30.198;2023-03-16T13:22:23;101683.03;;;12.45;29.45
78667;BME280;67983;59.830;30.198;2023-03-16T13:24:54;101688.34;;;12.45;29.71
78667;BME280;67983;59.830;30.198;2023-03-16T13:27:25;101686.03;;;12.39;29.34
78667;BME280;67983;59.830;30.198;2023-03-16T13:29:57;101692.31;;;12.38;29.49
78667;BME280;67983;59.830;30.198;2023-03-16T13:32:26;101691.28;;;12.25;28.20
78667;BME280;67983;59.830;30.198;2023-03-16T13:34:57;101701.47;;;12.03;26.73
78667;BME280;67983;59.830;30.198;2023-03-16T13:37:28;101696.13;;;11.87;26.55
78667;BME280;67983;59.830;30.198;2023-03-16T13:39:58;101703.63;;;11.63;27.55
78667;BME280;67983;59.830;30.198;2023-03-16T13:42:30;101701.06;;;11.28;27.78
78667;BME280;67983;59.830;30.198;2023-03-16T13:45:10;101697.72;;;10.74;29.13
78667;BME280;67983;59.830;30.198;2023-03-16T13:47:42;101715.09;;;10.45;29.05
78667;BME280;67983;59.830;30.198;2023-03-16T13:50:14;101701.59;;;10.50;30.08